createdAt,value
2022-10-30T00:01:44.964Z,98245.34
2022-10-30T00:03:46.303Z,98239.31
2022-10-30T00:05:47.626Z,98235.94
2022-10-30T00:07:48.879Z,98237.59
2022-10-30T00:09:50.189Z,98236.81
2022-10-30T00:11:51.452Z,98237.66
2022-10-30T00:13:52.778Z,98229.97
2022-10-30T00:15:54.110Z,98229.97
2022-10-30T00:17:55.713Z,98224.03
2022-10-30T00:19:57.217Z,98094.50
2022-10-30T00:23:58.655Z,98229.16
2022-10-30T00:25:59.936Z,98231.72
2022-10-30T00:28:01.245Z,98239.38
2022-10-30T00:30:02.522Z,98226.59
2022-10-30T00:32:03.804Z,98226.59
2022-10-30T00:34:05.105Z,98222.31
2022-10-30T00:36:06.464Z,98232.53
2022-10-30T00:38:07.757Z,98224.06
2022-10-30T00:40:09.129Z,98224.91
2022-10-30T00:42:10.426Z,98223.25
2022-10-30T00:44:11.720Z,98226.69
2022-10-30T00:46:13.035Z,98229.28
2022-10-30T00:48:14.353Z,98222.44
2022-10-30T00:50:15.751Z,98220.66
2022-10-30T00:52:17.077Z,98222.34
2022-10-30T00:54:18.372Z,98219.84
2022-10-30T00:56:19.666Z,98216.44
2022-10-30T00:58:21.021Z,98225.81
2022-10-30T01:00:22.342Z,98219.00
2022-10-30T01:02:23.787Z,98218.16
2022-10-30T01:04:29.055Z,98217.34
2022-10-30T01:06:31.593Z,98206.28
2022-10-30T01:08:33.162Z,98207.13
2022-10-30T01:10:34.532Z,98200.28
2022-10-30T01:12:35.804Z,98210.50
2022-10-30T01:14:37.081Z,98205.38
2022-10-30T01:16:38.569Z,98193.47
2022-10-30T01:18:39.884Z,98196.84
2022-10-30T01:20:41.154Z,98194.25
2022-10-30T01:22:42.444Z,98201.06
2022-10-30T01:24:43.768Z,98199.34
2022-10-30T01:26:45.065Z,98190.75
2022-10-30T01:28:46.371Z,98186.50
2022-10-30T01:30:47.682Z,98188.22
2022-10-30T01:32:48.956Z,98190.78
2022-10-30T01:34:50.233Z,98188.28
2022-10-30T01:36:51.572Z,98178.06
2022-10-30T01:38:52.949Z,98185.75
2022-10-30T01:40:54.210Z,98190.03
2022-10-30T01:42:55.575Z,98197.63
2022-10-30T01:44:56.850Z,98185.72
2022-10-30T01:46:58.125Z,98190.84
2022-10-30T01:48:59.409Z,98183.16
2022-10-30T01:51:00.707Z,98191.66
2022-10-30T01:53:01.991Z,98185.72
2022-10-30T01:55:03.293Z,98188.28
2022-10-30T01:57:04.658Z,98174.66
2022-10-30T01:59:05.945Z,98169.56
2022-10-30T02:01:07.323Z,98175.50
2022-10-30T02:03:08.879Z,98181.44
2022-10-30T02:05:10.155Z,98176.31
2022-10-30T02:07:11.479Z,98175.50
2022-10-30T02:09:12.735Z,98178.06
2022-10-30T02:11:14.064Z,98176.38
2022-10-30T02:13:15.366Z,98178.06
2022-10-30T02:15:17.113Z,98172.13
2022-10-30T02:17:18.405Z,98173.81
2022-10-30T02:19:19.703Z,98167.91
2022-10-30T02:21:21.015Z,98162.81
2022-10-30T02:23:22.495Z,98163.69
2022-10-30T02:25:23.849Z,98174.78
2022-10-30T02:27:25.141Z,98168.72
2022-10-30T02:29:26.432Z,98161.88
2022-10-30T02:31:27.701Z,98159.31
2022-10-30T02:33:29.002Z,98160.13
2022-10-30T02:35:30.302Z,98159.31
2022-10-30T02:37:32.765Z,98155.88
2022-10-30T02:39:34.061Z,98154.22
2022-10-30T02:41:35.362Z,98152.53
2022-10-30T02:43:36.847Z,98149.09
2022-10-30T02:45:38.117Z,98145.69
2022-10-30T02:47:39.455Z,98148.28
2022-10-30T02:49:40.748Z,98147.34
2022-10-30T02:51:42.074Z,98144.84
2022-10-30T02:53:43.375Z,98146.56
2022-10-30T02:55:44.665Z,98144.84
2022-10-30T02:57:45.952Z,98142.31
2022-10-30T02:59:47.361Z,98144.91
2022-10-30T03:01:48.736Z,98140.63
2022-10-30T03:03:50.080Z,98146.63
2022-10-30T03:05:51.356Z,98145.72
2022-10-30T03:07:53.141Z,98140.63
2022-10-30T03:09:54.976Z,98149.91
2022-10-30T03:11:56.259Z,98153.28
2022-10-30T03:13:57.745Z,98141.34
2022-10-30T03:15:59.024Z,98142.97
2022-10-30T03:18:00.617Z,98138.72
2022-10-30T03:20:02.172Z,98138.72
2022-10-30T03:22:03.436Z,98143.78
2022-10-30T03:24:04.745Z,98142.13
2022-10-30T03:26:06.243Z,98141.22
2022-10-30T03:28:07.525Z,98144.63
2022-10-30T03:30:08.816Z,98141.28
2022-10-30T03:32:10.790Z,98146.38
2022-10-30T03:34:12.169Z,98143.78
2022-10-30T03:36:13.482Z,98141.22
2022-10-30T03:38:14.749Z,98143.72
2022-10-30T03:40:16.101Z,98146.31
2022-10-30T03:42:17.398Z,98154.84
2022-10-30T03:44:18.693Z,98142.06
2022-10-30T03:46:19.972Z,98142.13
2022-10-30T03:48:21.329Z,98144.69
2022-10-30T03:50:22.616Z,98147.28
2022-10-30T03:52:23.898Z,98143.91
2022-10-30T03:54:25.193Z,98147.34
2022-10-30T03:56:26.482Z,98148.19
2022-10-30T03:58:27.810Z,98149.91
2022-10-30T04:00:29.105Z,98144.84
2022-10-30T04:02:30.417Z,98143.09
2022-10-30T04:04:31.725Z,98152.47
2022-10-30T04:06:32.979Z,98148.22
2022-10-30T04:08:34.284Z,98145.72
2022-10-30T04:10:35.602Z,98141.53
2022-10-30T04:12:36.980Z,98144.03
2022-10-30T04:14:38.263Z,98138.06
2022-10-30T04:16:39.570Z,98134.72
2022-10-30T04:18:40.892Z,98140.63
2022-10-30T04:20:42.201Z,98129.53
2022-10-30T04:22:43.469Z,98132.91
2022-10-30T04:24:45.384Z,98126.13
2022-10-30T04:26:46.687Z,98128.66
2022-10-30T04:28:47.960Z,98125.25
2022-10-30T04:30:49.454Z,98127.75
2022-10-30T04:32:50.927Z,98133.69
2022-10-30T04:34:53.305Z,98131.97
2022-10-30T04:36:55.606Z,98128.56
2022-10-30T04:38:56.884Z,98120.94
2022-10-30T04:40:58.203Z,98123.47
2022-10-30T04:42:59.817Z,98115.78
2022-10-30T04:45:05.098Z,98108.97
2022-10-30T04:47:06.551Z,98115.72
2022-10-30T04:49:07.905Z,98111.53
2022-10-30T04:51:09.824Z,98118.28
2022-10-30T04:53:11.144Z,98114.03
2022-10-30T04:55:12.472Z,98120.84
2022-10-30T04:57:13.781Z,98114.06
2022-10-30T04:59:15.268Z,98121.75
2022-10-30T05:01:16.831Z,98115.78
2022-10-30T05:03:18.189Z,98121.78
2022-10-30T05:05:20.272Z,98116.69
2022-10-30T05:07:21.549Z,98115.00
2022-10-30T05:09:22.853Z,98112.38
2022-10-30T05:11:24.129Z,98059.28
2022-10-30T05:13:25.406Z,98099.59
2022-10-30T05:15:26.681Z,98100.41
2022-10-30T05:17:28.018Z,98094.44
2022-10-30T05:19:32.005Z,98098.69
2022-10-30T05:21:33.303Z,98097.06
2022-10-30T05:23:34.575Z,98098.75
2022-10-30T05:25:35.900Z,98121.78
2022-10-30T05:27:37.337Z,98123.50
2022-10-30T05:29:38.619Z,98131.16
2022-10-30T05:31:39.903Z,98136.31
2022-10-30T05:33:41.163Z,98132.06
2022-10-30T05:35:42.432Z,98132.06
2022-10-30T05:37:43.901Z,98127.78
2022-10-30T05:39:45.275Z,98138.00
2022-10-30T05:41:46.585Z,98142.28
2022-10-30T05:43:47.921Z,98137.06
2022-10-30T05:45:49.578Z,98138.72
2022-10-30T05:47:50.854Z,98137.00
2022-10-30T05:49:52.231Z,98142.13
2022-10-30T05:51:53.500Z,98139.50
2022-10-30T05:53:54.760Z,98135.22
2022-10-30T05:55:56.076Z,98136.91
2022-10-30T05:57:57.691Z,98136.97
2022-10-30T05:59:59.151Z,98137.06
2022-10-30T06:02:00.494Z,98130.25
2022-10-30T06:04:01.820Z,98134.63
2022-10-30T06:06:03.133Z,98141.53
2022-10-30T06:08:04.502Z,98133.06
2022-10-30T06:10:05.778Z,98138.06
2022-10-30T06:12:07.107Z,98139.75
2022-10-30T06:14:08.399Z,98148.25
2022-10-30T06:16:09.676Z,98143.94
2022-10-30T06:18:10.952Z,98149.00
2022-10-30T06:20:12.217Z,98159.25
2022-10-30T06:22:13.512Z,98160.91
2022-10-30T06:24:14.856Z,98172.78
2022-10-30T06:26:16.129Z,98160.78
2022-10-30T06:28:17.400Z,98162.50
2022-10-30T06:30:18.711Z,98161.66
2022-10-30T06:32:19.982Z,98151.44
2022-10-30T06:34:21.293Z,98154.88
2022-10-30T06:36:22.589Z,98152.34
2022-10-30T06:38:23.907Z,98145.59
2022-10-30T06:40:25.180Z,98147.28
2022-10-30T06:42:26.515Z,98145.56
2022-10-30T06:44:27.804Z,98148.94
2022-10-30T06:46:32.592Z,98138.72
2022-10-30T06:48:35.297Z,98138.72
2022-10-30T06:50:36.577Z,98135.25
2022-10-30T06:52:37.870Z,98140.31
2022-10-30T06:54:39.140Z,98152.34
2022-10-30T06:56:40.457Z,98149.84
2022-10-30T06:58:42.204Z,98142.22
2022-10-30T07:00:43.597Z,98148.03
2022-10-30T07:02:44.943Z,98144.63
2022-10-30T07:04:46.208Z,98142.91
2022-10-30T07:06:47.526Z,98143.78
2022-10-30T07:08:48.812Z,98146.38
2022-10-30T07:10:50.090Z,98137.13
2022-10-30T07:12:54.342Z,98149.13
2022-10-30T07:14:55.619Z,98153.41
2022-10-30T07:16:56.893Z,98157.69
2022-10-30T07:19:00.633Z,98152.63
2022-10-30T07:21:05.003Z,98162.88
2022-10-30T07:23:06.453Z,98159.50
2022-10-30T07:25:07.729Z,98162.91
2022-10-30T07:27:09.011Z,98156.09
2022-10-30T07:29:10.309Z,98152.66
2022-10-30T07:31:11.624Z,98167.06
2022-10-30T07:33:12.958Z,98178.06
2022-10-30T07:35:14.296Z,98184.03
2022-10-30T07:37:15.571Z,98190.84
2022-10-30T07:39:16.854Z,98176.38
2022-10-30T07:41:18.148Z,98184.09
2022-10-30T07:43:19.425Z,98178.13
2022-10-30T07:45:22.241Z,98168.81
2022-10-30T07:47:23.740Z,98172.22
2022-10-30T07:49:25.039Z,98176.34
2022-10-30T07:51:26.356Z,98181.34
2022-10-30T07:53:27.710Z,98179.59
2022-10-30T07:55:29.052Z,98171.00
2022-10-30T07:57:30.310Z,98164.28
2022-10-30T07:59:34.488Z,98160.53
2022-10-30T08:01:35.928Z,98162.00
2022-10-30T08:03:37.249Z,98156.22
2022-10-30T08:05:38.549Z,98168.34
2022-10-30T08:07:40.085Z,98163.09
2022-10-30T08:09:41.431Z,98153.72
2022-10-30T08:11:42.735Z,98163.81
2022-10-30T08:13:44.008Z,98172.44
2022-10-30T08:15:45.290Z,98170.84
2022-10-30T08:17:46.657Z,98160.59
2022-10-30T08:19:47.940Z,98153.84
2022-10-30T08:21:49.433Z,98160.34
2022-10-30T08:23:51.720Z,98161.34
2022-10-30T08:25:53.018Z,98164.28
2022-10-30T08:27:55.002Z,98148.81
2022-10-30T08:29:56.287Z,98156.16
2022-10-30T08:31:57.590Z,98164.22
2022-10-30T08:33:58.925Z,98157.44
2022-10-30T08:36:00.796Z,98154.78
2022-10-30T08:38:02.977Z,98158.38
2022-10-30T08:40:04.270Z,98161.88
2022-10-30T08:42:05.550Z,98102.97
2022-10-30T08:44:06.821Z,98150.16
2022-10-30T08:46:08.130Z,98140.91
2022-10-30T08:48:09.444Z,98150.41
2022-10-30T08:50:10.779Z,98140.63
2022-10-30T08:52:12.172Z,98140.19
2022-10-30T08:54:13.449Z,98140.75
2022-10-30T08:56:14.755Z,98147.75
2022-10-30T08:58:16.024Z,98135.69
2022-10-30T09:00:17.350Z,98133.38
2022-10-30T09:02:18.814Z,98133.63
2022-10-30T09:04:20.193Z,98127.28
2022-10-30T09:06:21.485Z,98117.81
2022-10-30T09:08:23.567Z,98124.84
2022-10-30T09:10:24.840Z,98125.53
2022-10-30T09:12:26.159Z,98120.78
2022-10-30T09:14:27.430Z,98122.72
2022-10-30T09:16:28.766Z,98130.53
2022-10-30T09:18:30.029Z,98123.41
2022-10-30T09:20:31.322Z,98118.59
2022-10-30T09:22:32.630Z,98121.41
2022-10-30T09:24:33.905Z,98130.47
2022-10-30T09:26:35.198Z,98131.41
2022-10-30T09:28:36.481Z,98132.28
2022-10-30T09:30:37.753Z,98133.91
2022-10-30T09:32:39.029Z,98131.34
2022-10-30T09:34:41.075Z,98132.38
2022-10-30T09:36:46.304Z,98128.91
2022-10-30T09:38:47.763Z,98118.13
2022-10-30T09:40:49.040Z,98122.25
2022-10-30T09:42:50.628Z,98124.38
2022-10-30T09:45:08.187Z,98133.97
2022-10-30T09:47:13.176Z,98128.69
2022-10-30T09:49:14.602Z,98137.94
2022-10-30T09:51:15.950Z,98143.84
2022-10-30T09:53:17.228Z,98143.84
2022-10-30T09:55:18.543Z,98142.13
2022-10-30T09:57:19.903Z,98148.88
2022-10-30T09:59:21.200Z,98139.09
2022-10-30T10:01:22.640Z,98146.16
2022-10-30T10:03:24.017Z,98141.03
2022-10-30T10:05:25.306Z,98138.56
2022-10-30T10:07:26.687Z,98133.59
2022-10-30T10:09:28.182Z,98007.16
2022-10-30T10:11:29.535Z,98132.81
2022-10-30T10:13:30.825Z,98133.63
2022-10-30T10:15:32.114Z,98137.00
2022-10-30T10:17:33.466Z,98138.34
2022-10-30T10:19:34.749Z,98146.06
2022-10-30T10:21:36.050Z,98152.44
2022-10-30T10:23:37.334Z,98156.00
2022-10-30T10:25:38.637Z,98148.47
2022-10-30T10:27:39.914Z,98147.69
2022-10-30T10:29:41.218Z,98149.38
2022-10-30T10:31:42.495Z,98151.97
2022-10-30T10:33:43.823Z,98159.69
2022-10-30T10:35:45.109Z,98156.28
2022-10-30T10:37:46.393Z,98150.38
2022-10-30T10:39:47.711Z,98150.34
2022-10-30T10:41:53.443Z,98152.09
2022-10-30T10:43:55.153Z,98160.63
2022-10-30T10:45:56.413Z,98153.78
2022-10-30T10:47:58.005Z,98149.59
2022-10-30T10:49:59.589Z,98144.50
2022-10-30T10:52:00.869Z,98143.63
2022-10-30T10:54:02.416Z,98146.97
2022-10-30T10:56:03.713Z,98138.44
2022-10-30T10:58:04.994Z,98143.50
2022-10-30T11:00:06.342Z,98143.50
2022-10-30T11:02:07.826Z,98135.81
2022-10-30T11:04:09.211Z,98141.78
2022-10-30T11:06:10.482Z,98137.53
2022-10-30T11:08:12.420Z,98134.28
2022-10-30T11:10:14.225Z,98132.88
2022-10-30T11:12:15.503Z,98137.78
2022-10-30T11:14:16.821Z,98135.97
2022-10-30T11:16:18.137Z,98137.78
2022-10-30T11:18:19.428Z,98141.81
2022-10-30T11:20:20.721Z,98142.22
2022-10-30T11:22:22.128Z,98140.00
2022-10-30T11:24:23.410Z,98128.06
2022-10-30T11:26:24.664Z,98129.25
2022-10-30T11:28:25.931Z,98123.78
2022-10-30T11:30:28.657Z,98129.06
2022-10-30T11:32:30.061Z,98134.34
2022-10-30T11:34:31.375Z,98124.94
2022-10-30T11:36:33.681Z,98138.72
2022-10-30T11:38:34.962Z,98134.53
2022-10-30T11:40:36.229Z,98142.28
2022-10-30T11:42:37.505Z,98133.81
2022-10-30T11:44:38.835Z,98131.41
2022-10-30T11:46:40.263Z,98137.50
2022-10-30T11:48:41.577Z,98130.78
2022-10-30T11:50:42.850Z,98137.00
2022-10-30T11:52:44.131Z,98135.44
2022-10-30T11:54:45.438Z,98135.59
2022-10-30T11:56:46.711Z,98128.13
2022-10-30T11:58:48.061Z,98128.25
2022-10-30T12:00:49.336Z,98127.59
2022-10-30T12:02:53.898Z,98125.97
2022-10-30T12:04:55.272Z,98134.56
2022-10-30T12:06:56.575Z,98133.84
2022-10-30T12:08:57.844Z,98126.25
2022-10-30T12:10:59.206Z,98126.25
2022-10-30T12:13:00.953Z,98121.19
2022-10-30T12:15:02.466Z,98122.09
2022-10-30T12:17:03.754Z,98116.16
2022-10-30T12:19:05.081Z,98117.91
2022-10-30T12:21:06.367Z,98116.22
2022-10-30T12:23:07.664Z,98120.59
2022-10-30T12:25:08.977Z,98115.53
2022-10-30T12:27:10.249Z,98120.72
2022-10-30T12:29:17.608Z,98113.06
2022-10-30T12:31:18.940Z,98114.81
2022-10-30T12:33:20.201Z,98115.63
2022-10-30T12:35:21.524Z,98118.19
2022-10-30T12:37:22.785Z,98112.31
2022-10-30T12:39:24.071Z,98120.91
2022-10-30T12:41:25.377Z,98115.06
2022-10-30T12:43:27.144Z,98115.13
2022-10-30T12:45:28.646Z,98110.94
2022-10-30T12:47:30.298Z,98116.13
2022-10-30T12:49:31.594Z,98108.50
2022-10-30T12:51:32.972Z,98116.22
2022-10-30T12:53:34.257Z,98107.78
2022-10-30T12:55:35.524Z,98106.13
2022-10-30T12:57:36.838Z,98103.63
2022-10-30T12:59:38.109Z,98107.09
2022-10-30T13:01:42.546Z,98103.69
2022-10-30T13:03:43.997Z,98099.47
2022-10-30T13:05:45.292Z,98101.16
2022-10-30T13:07:46.630Z,98090.94
2022-10-30T13:09:47.914Z,98096.88
2022-10-30T13:11:49.181Z,98092.63
2022-10-30T13:13:50.488Z,98082.38
2022-10-30T13:15:51.785Z,98086.59
2022-10-30T13:17:53.077Z,98080.56
2022-10-30T13:19:54.373Z,98089.88
2022-10-30T13:22:01.717Z,98077.97
2022-10-30T13:24:03.010Z,98078.81
2022-10-30T13:26:04.341Z,98078.81
2022-10-30T13:28:05.628Z,98081.34
2022-10-30T13:30:06.904Z,98076.31
2022-10-30T13:32:08.184Z,98077.34
2022-10-30T13:34:09.474Z,98080.03
2022-10-30T13:36:10.794Z,97937.19
2022-10-30T13:38:12.065Z,98070.00
2022-10-30T13:40:14.594Z,98070.94
2022-10-30T13:42:16.093Z,98061.63
2022-10-30T13:44:17.364Z,98054.06
2022-10-30T13:46:18.651Z,98053.22
2022-10-30T13:48:19.975Z,98060.09
2022-10-30T13:50:21.248Z,98049.75
2022-10-30T13:52:22.640Z,98052.63
2022-10-30T13:54:23.956Z,98061.09
2022-10-30T13:56:25.284Z,98048.34
2022-10-30T13:58:26.551Z,98050.44
2022-10-30T14:00:27.845Z,98059.16
2022-10-30T14:02:29.265Z,98056.72
2022-10-30T14:04:30.643Z,98057.66
2022-10-30T14:06:33.616Z,98050.03
2022-10-30T14:08:35.119Z,98052.59
2022-10-30T14:10:36.445Z,98057.66
2022-10-30T14:12:37.754Z,98050.88
2022-10-30T14:14:39.134Z,98044.09
2022-10-30T14:16:40.959Z,98056.84
2022-10-30T14:18:42.251Z,98058.59
2022-10-30T14:20:43.579Z,98055.16
2022-10-30T14:22:45.152Z,98061.16
2022-10-30T14:24:46.460Z,98045.00
2022-10-30T14:26:51.700Z,98047.59
2022-10-30T14:28:54.290Z,98055.25
2022-10-30T14:30:55.577Z,98056.13
2022-10-30T14:32:57.226Z,98051.06
2022-10-30T14:34:58.514Z,98049.38
2022-10-30T14:36:59.824Z,98051.06
2022-10-30T14:39:01.122Z,98051.13
2022-10-30T14:41:02.432Z,98058.78
2022-10-30T14:43:03.718Z,98050.28
2022-10-30T14:45:05.868Z,98057.94
2022-10-30T14:47:07.160Z,98057.03
2022-10-30T14:49:08.457Z,98053.50
2022-10-30T14:51:11.572Z,98057.81
2022-10-30T14:53:12.861Z,98057.81
2022-10-30T14:55:14.185Z,98056.91
2022-10-30T14:57:15.482Z,98062.91
2022-10-30T14:59:16.788Z,98060.38
2022-10-30T15:01:18.139Z,98062.06
2022-10-30T15:03:19.584Z,98062.09
2022-10-30T15:05:21.090Z,98062.97
2022-10-30T15:07:22.449Z,98070.66
2022-10-30T15:09:23.972Z,98075.75
2022-10-30T15:11:25.276Z,98067.25
2022-10-30T15:13:26.550Z,98078.44
2022-10-30T15:15:27.861Z,98076.75
2022-10-30T15:17:29.291Z,98081.88
2022-10-30T15:19:30.571Z,98085.31
2022-10-30T15:21:33.948Z,98081.88
2022-10-30T15:23:35.229Z,98087.00
2022-10-30T15:25:36.529Z,98078.47
2022-10-30T15:27:37.874Z,98085.25
2022-10-30T15:29:39.145Z,98080.13
2022-10-30T15:31:40.433Z,98082.47
2022-10-30T15:33:41.750Z,98085.75
2022-10-30T15:35:43.026Z,98078.94
2022-10-30T15:37:44.328Z,98084.88
2022-10-30T15:39:45.642Z,97955.44
2022-10-30T15:41:46.965Z,98086.47
2022-10-30T15:43:48.224Z,98091.53
2022-10-30T15:45:49.558Z,98093.28
2022-10-30T15:47:53.794Z,98089.03
2022-10-30T15:49:55.314Z,98088.19
2022-10-30T15:51:56.622Z,98085.75
2022-10-30T15:53:57.949Z,98090.88
2022-10-30T15:55:59.239Z,98090.78
2022-10-30T15:58:03.983Z,98097.56
2022-10-30T16:00:07.935Z,98092.44
2022-10-30T16:02:09.480Z,98093.28
2022-10-30T16:04:10.850Z,98086.50
2022-10-30T16:06:12.129Z,98092.50
2022-10-30T16:08:13.936Z,98088.25
2022-10-30T16:10:15.210Z,98095.91
2022-10-30T16:12:16.516Z,98083.94
2022-10-30T16:14:17.817Z,98084.75
2022-10-30T16:16:19.099Z,98084.72
2022-10-30T16:18:20.439Z,98087.25
2022-10-30T16:20:21.728Z,98088.91
2022-10-30T16:22:22.997Z,98087.22
2022-10-30T16:24:24.282Z,98088.84
2022-10-30T16:26:25.588Z,98094.69
2022-10-30T16:28:26.938Z,98085.25
2022-10-30T16:30:31.928Z,98078.38
2022-10-30T16:32:33.322Z,98090.28
2022-10-30T16:34:37.798Z,98089.41
2022-10-30T16:36:39.117Z,98086.78
2022-10-30T16:38:40.457Z,98080.75
2022-10-30T16:40:41.775Z,98088.34
2022-10-30T16:42:43.058Z,98082.38
2022-10-30T16:44:44.365Z,98088.28
2022-10-30T16:46:45.631Z,98092.00
2022-10-30T16:48:49.625Z,98095.72
2022-10-30T16:50:50.940Z,98093.34
2022-10-30T16:52:52.217Z,98117.72
2022-10-30T16:54:53.527Z,98097.50
2022-10-30T16:56:54.869Z,98096.91
2022-10-30T16:58:56.140Z,98086.66
2022-10-30T17:00:57.548Z,98101.16
2022-10-30T17:02:59.231Z,98093.38
2022-10-30T17:05:00.693Z,98100.91
2022-10-30T17:07:01.964Z,98100.75
2022-10-30T17:09:03.274Z,98102.13
2022-10-30T17:11:04.850Z,98103.63
2022-10-30T17:13:06.152Z,98108.28
2022-10-30T17:15:07.432Z,98106.91
2022-10-30T17:17:08.729Z,98110.00
2022-10-30T17:19:10.009Z,98109.00
2022-10-30T17:21:11.289Z,98116.59
2022-10-30T17:23:12.574Z,98108.94
2022-10-30T17:25:13.893Z,98114.78
2022-10-30T17:27:15.153Z,98113.06
2022-10-30T17:29:16.424Z,98118.88
2022-10-30T17:31:17.704Z,98112.75
2022-10-30T17:33:18.965Z,98107.56
2022-10-30T17:35:20.265Z,98109.34
2022-10-30T17:37:21.562Z,98117.19
2022-10-30T17:39:22.834Z,98118.09
2022-10-30T17:41:24.134Z,98114.59
2022-10-30T17:43:25.410Z,98106.38
2022-10-30T17:45:26.713Z,98113.75
2022-10-30T17:47:28.039Z,98114.47
2022-10-30T17:49:29.364Z,98103.94
2022-10-30T17:51:32.447Z,98109.50
2022-10-30T17:53:39.848Z,98117.88
2022-10-30T17:55:41.125Z,98107.13
2022-10-30T17:57:42.501Z,98104.59
2022-10-30T17:59:43.822Z,98107.44
2022-10-30T18:01:49.193Z,98111.94
2022-10-30T18:03:50.610Z,98110.22
2022-10-30T18:05:51.941Z,98108.25
2022-10-30T18:07:53.259Z,98109.72
2022-10-30T18:09:54.571Z,98102.06
2022-10-30T18:11:55.857Z,98104.59
2022-10-30T18:13:57.522Z,98104.91
2022-10-30T18:15:58.822Z,98108.28
2022-10-30T18:18:00.285Z,98103.44
2022-10-30T18:20:01.682Z,98108.78
2022-10-30T18:22:03.055Z,98102.91
2022-10-30T18:24:04.502Z,98108.72
2022-10-30T18:26:05.847Z,98107.47
2022-10-30T18:28:07.151Z,98101.69
2022-10-30T18:30:08.418Z,98105.19
2022-10-30T18:32:09.939Z,98108.75
2022-10-30T18:34:11.290Z,98113.16
2022-10-30T18:36:12.597Z,98104.56
2022-10-30T18:38:16.736Z,98113.94
2022-10-30T18:40:21.739Z,98105.44
2022-10-30T18:42:26.779Z,98102.75
2022-10-30T18:44:28.073Z,98098.03
2022-10-30T18:46:29.354Z,98102.22
2022-10-30T18:48:30.637Z,98100.78
2022-10-30T18:50:31.944Z,98101.19
2022-10-30T18:52:33.221Z,98104.03
2022-10-30T18:54:34.525Z,98093.03
2022-10-30T18:56:35.827Z,98100.97
2022-10-30T18:58:37.137Z,98098.59
2022-10-30T19:00:58.303Z,98087.63
2022-10-30T19:03:02.901Z,98092.91
2022-10-30T19:05:04.315Z,98088.00
2022-10-30T19:07:05.588Z,98071.03
2022-10-30T19:09:06.866Z,98091.69
2022-10-30T19:11:08.145Z,98094.25
2022-10-30T19:13:13.006Z,98088.81
2022-10-30T19:15:14.515Z,98095.78
2022-10-30T19:17:15.790Z,98094.22
2022-10-30T19:19:17.955Z,98088.81
2022-10-30T19:21:21.320Z,98103.09
2022-10-30T19:23:22.606Z,98091.50
2022-10-30T19:25:23.900Z,98091.59
2022-10-30T19:27:25.173Z,98080.25
2022-10-30T19:29:26.446Z,98085.63
2022-10-30T19:31:28.026Z,98096.94
2022-10-30T19:33:29.382Z,98091.97
2022-10-30T19:35:30.691Z,98090.34
2022-10-30T19:37:31.965Z,98096.34
2022-10-30T19:39:33.259Z,98060.56
2022-10-30T19:41:34.548Z,98103.78
2022-10-30T19:43:35.877Z,98104.22
2022-10-30T19:45:37.213Z,98101.94
2022-10-30T19:47:38.512Z,98099.25
2022-10-30T19:49:39.785Z,98103.25
2022-10-30T19:51:41.065Z,98093.81
2022-10-30T19:53:42.374Z,98098.03
2022-10-30T19:55:43.690Z,98098.88
2022-10-30T19:57:44.969Z,98108.72
2022-10-30T19:59:46.272Z,98109.53
2022-10-30T20:01:47.670Z,98106.88
2022-10-30T20:03:49.026Z,98108.63
2022-10-30T20:05:50.540Z,98110.75
2022-10-30T20:07:52.228Z,98114.28
2022-10-30T20:09:53.501Z,98117.72
2022-10-30T20:11:54.809Z,98118.47
2022-10-30T20:13:56.079Z,98121.03
2022-10-30T20:15:58.192Z,98118.56
2022-10-30T20:17:59.739Z,98127.59
2022-10-30T20:20:01.261Z,98122.88
2022-10-30T20:22:02.529Z,98127.53
2022-10-30T20:24:03.855Z,98133.22
2022-10-30T20:26:05.139Z,98138.16
2022-10-30T20:28:07.134Z,98134.44
2022-10-30T20:30:08.567Z,98136.38
2022-10-30T20:32:12.942Z,98138.94
2022-10-30T20:34:14.252Z,98147.78
2022-10-30T20:36:15.581Z,98137.25
2022-10-30T20:38:17.118Z,98141.25
2022-10-30T20:40:18.381Z,98157.97
2022-10-30T20:42:19.650Z,98150.81
2022-10-30T20:44:20.949Z,98152.28
2022-10-30T20:46:22.304Z,98147.03
2022-10-30T20:48:23.613Z,98151.22
2022-10-30T20:50:24.892Z,98146.94
2022-10-30T20:52:26.187Z,98147.44
2022-10-30T20:54:27.497Z,98144.59
2022-10-30T20:56:28.821Z,98150.28
2022-10-30T20:58:30.089Z,98153.06
2022-10-30T21:00:31.498Z,98153.91
2022-10-30T21:02:32.852Z,98153.78
2022-10-30T21:04:34.259Z,98148.66
2022-10-30T21:06:35.516Z,98161.69
2022-10-30T21:08:36.999Z,98151.66
2022-10-30T21:10:38.288Z,98148.97
2022-10-30T21:12:39.618Z,98147.19
2022-10-30T21:14:41.009Z,98156.56
2022-10-30T21:16:42.338Z,98150.44
2022-10-30T21:18:43.613Z,98148.88
2022-10-30T21:20:45.280Z,98154.72
2022-10-30T21:22:47.260Z,98154.84
2022-10-30T21:24:48.592Z,98150.63
2022-10-30T21:26:49.917Z,98158.31
2022-10-30T21:28:51.236Z,98147.75
2022-10-30T21:30:52.729Z,98152.22
2022-10-30T21:32:54.089Z,98148.03
2022-10-30T21:34:55.740Z,98150.34
2022-10-30T21:36:57.060Z,98157.00
2022-10-30T21:38:58.392Z,98142.06
2022-10-30T21:40:59.661Z,98148.78
2022-10-30T21:43:04.099Z,98148.25
2022-10-30T21:45:06.000Z,98149.66
2022-10-30T21:47:07.285Z,98149.56
2022-10-30T21:49:11.612Z,98154.63
2022-10-30T21:51:13.138Z,98153.66
2022-10-30T21:53:14.506Z,98158.66
2022-10-30T21:55:15.805Z,98154.31
2022-10-30T21:57:17.078Z,98151.25
2022-10-30T21:59:18.391Z,98153.16
2022-10-30T22:01:19.785Z,98147.34
2022-10-30T22:03:21.161Z,98146.56
2022-10-30T22:05:22.463Z,98160.38
2022-10-30T22:07:23.741Z,98148.47
2022-10-30T22:09:25.072Z,98146.88
2022-10-30T22:11:26.400Z,98147.25
2022-10-30T22:13:27.673Z,98147.22
2022-10-30T22:15:29.013Z,98033.28
2022-10-30T22:17:33.832Z,98152.06
2022-10-30T22:19:36.268Z,98148.56
2022-10-30T22:21:37.538Z,98149.44
2022-10-30T22:23:38.865Z,98145.09
2022-10-30T22:25:40.185Z,98143.91
2022-10-30T22:27:41.694Z,98147.66
2022-10-30T22:29:43.018Z,98146.41
2022-10-30T22:31:44.391Z,98153.75
2022-10-30T22:33:45.669Z,98163.34
2022-10-30T22:35:47.087Z,98158.34
2022-10-30T22:37:48.415Z,98157.50
2022-10-30T22:39:49.685Z,98164.94
2022-10-30T22:41:50.998Z,98154.69
2022-10-30T22:43:52.318Z,98159.31
2022-10-30T22:45:53.743Z,98169.19
2022-10-30T22:47:55.077Z,98164.69
2022-10-30T22:49:56.379Z,98160.84
2022-10-30T22:51:57.667Z,98158.75
2022-10-30T22:53:59.033Z,98163.31
2022-10-30T22:56:00.316Z,98165.66
2022-10-30T22:58:02.143Z,98167.28
2022-10-30T23:00:03.815Z,98160.44
2022-10-30T23:02:05.193Z,98162.16
2022-10-30T23:04:06.606Z,98163.03
2022-10-30T23:06:07.929Z,98169.91
2022-10-30T23:08:09.263Z,98175.09
2022-10-30T23:10:10.523Z,98167.47
2022-10-30T23:12:11.821Z,98168.41
2022-10-30T23:14:13.146Z,98166.72
2022-10-30T23:16:14.460Z,98166.81
2022-10-30T23:18:15.766Z,98170.22
2022-10-30T23:20:17.037Z,98173.69
2022-10-30T23:22:18.308Z,98168.66
2022-10-30T23:24:19.589Z,98167.88
2022-10-30T23:26:20.942Z,98164.53
2022-10-30T23:28:22.283Z,98172.22
2022-10-30T23:30:23.594Z,98168.00
2022-10-30T23:32:24.900Z,98168.06
2022-10-30T23:34:26.190Z,98170.63
2022-10-30T23:36:27.480Z,98173.25
2022-10-30T23:38:28.828Z,98173.25
2022-10-30T23:40:30.100Z,98177.50
2022-10-30T23:42:31.401Z,98175.88
2022-10-30T23:44:32.676Z,98179.28
2022-10-30T23:46:34.013Z,98175.06
2022-10-30T23:48:35.285Z,98177.75
2022-10-30T23:50:36.564Z,98176.91